Time;durP1;ratioP1;P1;durP2;ratioP2;P2;SDS_P1;SDS_P2;PMS_P1;PMS_P2;Temp;Humidity;BMP_temperature;BMP_pressure;BME280_temperature;BME280_humidity;BME280_pressure;Samples;Min_cycle;Max_cycle;Signal;HPM_P1;HPM_P2
2021/01/03 00:07:33;;;;;;;33.88;17.15;;;3.30;99.90;;;;;;6753219;88;20534;-74
2021/01/03 00:17:33;;;;;;;35.03;15.85;;;3.20;99.90;;;;;;6741675;88;20316;-74
2021/01/03 00:27:35;;;;;;;33.97;15.88;;;3.20;99.90;;;;;;6739473;88;20283;-74
2021/01/03 00:37:35;;;;;;;27.67;14.50;;;3.20;99.90;;;;;;6739650;88;20271;-74
2021/01/03 00:47:37;;;;;;;28.30;14.87;;;3.30;99.90;;;;;;6742467;87;20305;-73
2021/01/03 00:57:37;;;;;;;31.12;14.18;;;3.40;99.90;;;;;;6738697;87;20217;-74
2021/01/03 01:07:38;;;;;;;28.93;14.10;;;3.30;99.90;;;;;;6742458;87;20193;-74
2021/01/03 01:17:38;;;;;;;26.33;13.00;;;3.20;99.90;;;;;;6740903;87;21341;-74
2021/01/03 01:27:39;;;;;;;25.37;12.95;;;3.30;99.90;;;;;;6740206;88;20501;-74
2021/01/03 01:37:39;;;;;;;25.08;11.80;;;3.30;99.90;;;;;;6740178;88;20189;-74
2021/01/03 01:47:43;;;;;;;24.52;12.65;;;3.40;99.90;;;;;;6742923;87;20185;-74
2021/01/03 01:58:02;;;;;;;24.98;12.30;;;3.30;99.90;;;;;;6738034;87;20178;-75
2021/01/03 02:08:18;;;;;;;22.13;11.02;;;3.30;99.90;;;;;;6754119;87;20202;-75
2021/01/03 02:18:19;;;;;;;21.00;10.93;;;3.30;99.90;;;;;;6756455;87;20203;-75
2021/01/03 02:28:22;;;;;;;22.05;10.48;;;3.10;99.90;;;;;;6756334;87;20213;-75
2021/01/03 02:38:26;;;;;;;17.35;8.57;;;3.20;99.90;;;;;;6756931;87;20855;-75
2021/01/03 02:48:27;;;;;;;13.30;6.18;;;3.20;99.90;;;;;;6757251;88;20700;-75
2021/01/03 02:58:28;;;;;;;9.32;4.32;;;3.30;99.90;;;;;;6755989;87;20185;-75
2021/01/03 03:08:29;;;;;;;5.47;3.03;;;3.30;99.90;;;;;;6752514;88;20228;-75
2021/01/03 03:18:30;;;;;;;8.60;3.75;;;3.30;99.90;;;;;;6763092;87;20189;-74
2021/01/03 03:28:30;;;;;;;6.65;3.37;;;3.30;99.90;;;;;;6759567;87;20208;-75
2021/01/03 03:38:31;;;;;;;6.90;3.25;;;3.30;99.90;;;;;;6762581;87;20193;-74
2021/01/03 03:48:31;;;;;;;6.55;3.05;;;3.30;99.90;;;;;;6758050;88;20438;-74
2021/01/03 03:58:32;;;;;;;6.30;3.03;;;3.30;99.90;;;;;;6756260;87;20219;-75
2021/01/03 04:08:35;;;;;;;4.60;2.55;;;3.30;99.90;;;;;;6757442;88;20185;-75
2021/01/03 04:18:35;;;;;;;6.87;3.17;;;3.20;99.90;;;;;;6760782;87;20235;-75
2021/01/03 04:28:36;;;;;;;8.25;3.45;;;3.30;99.90;;;;;;6758402;88;20226;-75
2021/01/03 04:38:36;;;;;;;8.95;3.80;;;3.30;99.90;;;;;;6756143;87;20346;-74
2021/01/03 04:48:38;;;;;;;6.85;3.22;;;3.20;99.90;;;;;;6755318;87;20237;-74
2021/01/03 04:59:09;;;;;;;8.57;3.55;;;3.20;99.90;;;;;;6754595;87;20193;-74
2021/01/03 05:09:10;;;;;;;7.05;3.58;;;3.00;99.90;;;;;;6738230;88;20236;-76
2021/01/03 05:19:10;;;;;;;8.02;3.33;;;3.10;99.90;;;;;;6734370;88;20199;-75
2021/01/03 05:29:22;;;;;;;7.30;3.42;;;3.20;99.90;;;;;;6734170;88;20206;-75
2021/01/03 05:39:23;;;;;;;8.18;3.00;;;3.10;99.90;;;;;;6732065;88;20310;-74
2021/01/03 05:49:26;;;;;;;6.07;2.67;;;3.00;99.90;;;;;;6733647;88;20607;-73
2021/01/03 05:59:28;;;;;;;6.37;2.72;;;3.10;99.90;;;;;;6735814;88;20346;-76
2021/01/03 06:09:39;;;;;;;5.30;2.30;;;3.30;99.90;;;;;;6728113;88;20235;-75
2021/01/03 06:19:54;;;;;;;6.40;2.60;;;3.20;99.90;;;;;;6734335;88;20182;-75
2021/01/03 06:30:06;;;;;;;4.90;2.58;;;3.10;99.90;;;;;;6746593;88;20287;-76
2021/01/03 06:40:16;;;;;;;3.25;1.98;;;3.20;99.90;;;;;;6741790;88;20169;-75
2021/01/03 06:50:31;;;;;;;5.57;2.40;;;3.10;99.90;;;;;;6736297;88;20205;-75
2021/01/03 07:00:51;;;;;;;3.47;2.12;;;3.00;99.90;;;;;;6724357;88;20173;-75
2021/01/03 07:10:52;;;;;;;4.68;2.20;;;3.10;99.90;;;;;;6715152;88;20683;-75
2021/01/03 07:21:13;;;;;;;3.22;1.77;;;3.10;99.90;;;;;;6722970;88;20193;-74
2021/01/03 07:31:35;;;;;;;4.47;2.40;;;3.10;99.90;;;;;;6715016;88;20349;-74
2021/01/03 07:41:36;;;;;;;4.47;2.40;;;3.10;99.90;;;;;;6718461;88;20233;-74
2021/01/03 07:51:42;;;;;;;5.75;2.60;;;3.20;99.90;;;;;;6720015;88;20211;-75
2021/01/03 08:01:51;;;;;;;6.57;2.58;;;3.10;99.90;;;;;;6718250;88;20174;-74
2021/01/03 08:12:01;;;;;;;7.47;3.30;;;3.20;99.90;;;;;;6719804;88;20192;-74
2021/01/03 08:22:02;;;;;;;6.68;3.87;;;3.30;99.90;;;;;;6724858;88;20726;-75
2021/01/03 08:32:09;;;;;;;9.45;4.50;;;3.20;99.90;;;;;;6728653;88;20177;-74
2021/01/03 08:42:34;;;;;;;9.38;4.57;;;3.30;99.90;;;;;;6735104;88;20496;-73
2021/01/03 08:52:35;;;;;;;9.68;4.45;;;3.30;99.90;;;;;;6722116;88;20209;-75
2021/01/03 09:02:40;;;;;;;12.18;4.72;;;3.30;99.90;;;;;;6733358;88;20283;-75
2021/01/03 09:12:44;;;;;;;9.48;4.50;;;3.40;99.90;;;;;;6733122;88;20212;-75
2021/01/03 09:22:54;;;;;;;12.25;5.15;;;3.50;99.90;;;;;;6731192;87;20192;-75
2021/01/03 09:33:05;;;;;;;10.07;5.12;;;3.60;99.90;;;;;;6735039;88;20384;-75
2021/01/03 09:43:32;;;;;;;9.88;4.95;;;3.60;99.90;;;;;;6738377;87;20219;-74
2021/01/03 09:53:38;;;;;;;8.85;4.53;;;3.60;99.90;;;;;;6750562;87;20216;-73
2021/01/03 10:03:42;;;;;;;11.38;5.00;;;3.70;99.90;;;;;;6738706;88;20283;-73
2021/01/03 10:13:54;;;;;;;9.65;4.97;;;3.90;99.90;;;;;;6734476;88;20181;-73
2021/01/03 10:23:57;;;;;;;10.95;5.37;;;3.90;99.90;;;;;;6729292;88;20232;-73
2021/01/03 10:33:58;;;;;;;11.85;5.12;;;3.90;99.90;;;;;;6733960;88;20205;-73
2021/01/03 10:43:59;;;;;;;9.40;5.47;;;4.00;99.90;;;;;;6728630;87;20204;-72
2021/01/03 10:54:01;;;;;;;11.45;5.78;;;4.10;99.90;;;;;;6728997;88;20205;-73
2021/01/03 11:04:01;;;;;;;10.25;5.50;;;4.10;99.90;;;;;;6724626;88;20319;-72
2021/01/03 11:14:02;;;;;;;11.40;5.87;;;4.10;99.90;;;;;;6729708;88;20266;-73
2021/01/03 11:24:07;;;;;;;12.80;6.30;;;4.20;99.90;;;;;;6728826;88;20243;-73
2021/01/03 11:34:10;;;;;;;12.13;6.32;;;4.10;99.90;;;;;;6733421;88;20704;-73
2021/01/03 11:44:10;;;;;;;12.43;6.62;;;4.20;99.90;;;;;;6731771;88;20189;-73
2021/01/03 11:54:11;;;;;;;12.05;6.28;;;4.20;99.90;;;;;;6722097;88;20234;-75
2021/01/03 12:04:11;;;;;;;13.43;6.40;;;4.20;99.90;;;;;;6718100;88;20224;-75
2021/01/03 12:14:12;;;;;;;14.20;6.60;;;4.20;99.90;;;;;;6723408;88;20237;-75
2021/01/03 12:24:12;;;;;;;12.02;6.40;;;4.30;99.90;;;;;;6715878;88;20212;-75
2021/01/03 12:34:14;;;;;;;9.88;5.37;;;4.30;99.90;;;;;;6725271;88;20649;-75
2021/01/03 12:44:15;;;;;;;10.73;5.90;;;4.40;99.90;;;;;;6710767;88;20387;-74
2021/01/03 12:54:15;;;;;;;10.88;5.65;;;4.40;99.90;;;;;;6728212;88;20390;-75
2021/01/03 13:04:17;;;;;;;9.27;5.40;;;4.40;99.90;;;;;;6719214;88;20246;-73
2021/01/03 13:14:18;;;;;;;8.65;5.28;;;4.50;99.90;;;;;;6714453;88;21074;-72
2021/01/03 13:24:21;;;;;;;9.00;4.95;;;4.50;99.90;;;;;;6717817;88;20328;-76
2021/01/03 13:34:21;;;;;;;8.07;4.60;;;4.40;99.90;;;;;;6730924;88;20265;-76
2021/01/03 13:44:22;;;;;;;8.17;4.37;;;4.40;99.90;;;;;;6736030;88;20194;-80
2021/01/03 13:54:23;;;;;;;7.87;4.47;;;4.50;99.90;;;;;;6732337;88;20540;-77
2021/01/03 14:04:24;;;;;;;8.80;3.90;;;4.50;99.90;;;;;;6723571;88;20540;-76
2021/01/03 14:14:25;;;;;;;5.60;3.20;;;4.50;99.90;;;;;;6727343;88;20279;-76
2021/01/03 14:24:26;;;;;;;6.28;3.60;;;4.50;99.90;;;;;;6733390;88;20221;-76
2021/01/03 14:34:47;;;;;;;6.15;3.25;;;4.20;99.90;;;;;;6750586;88;20203;-77
2021/01/03 14:44:54;;;;;;;4.85;3.17;;;4.10;99.90;;;;;;6743516;88;20551;-75
2021/01/03 14:55:20;;;;;;;6.25;3.30;;;4.00;99.90;;;;;;6738423;88;20214;-78
2021/01/03 15:05:25;;;;;;;5.43;3.28;;;4.00;99.90;;;;;;6728768;88;20204;-76
2021/01/03 15:15:28;;;;;;;6.95;3.47;;;3.80;99.90;;;;;;6721634;88;20964;-75
2021/01/03 15:25:38;;;;;;;6.68;3.70;;;3.70;99.90;;;;;;6734667;88;20182;-77
2021/01/03 15:35:43;;;;;;;6.82;3.87;;;3.50;99.90;;;;;;6724168;88;20224;-75
2021/01/03 15:45:51;;;;;;;7.47;4.22;;;3.50;99.90;;;;;;6728633;88;22047;-76
2021/01/03 15:55:53;;;;;;;9.10;4.40;;;3.40;99.90;;;;;;6735562;88;20292;-77
2021/01/03 16:05:53;;;;;;;7.80;4.43;;;3.50;99.90;;;;;;6742636;88;20178;-77
2021/01/03 16:15:54;;;;;;;8.93;4.47;;;3.50;99.90;;;;;;6736249;88;20198;-76
2021/01/03 16:26:48;;;;;;;9.17;4.87;;;3.40;99.90;;;;;;6722121;88;20216;-74
2021/01/03 16:36:59;;;;;;;9.40;5.03;;;3.40;99.90;;;;;;6682387;88;20534;-75
2021/01/03 16:47:12;;;;;;;9.80;5.00;;;3.40;99.90;;;;;;6724876;88;20636;-75
2021/01/03 16:57:39;;;;;;;9.68;4.97;;;3.40;99.90;;;;;;6727414;88;20770;-76
2021/01/03 17:07:46;;;;;;;10.70;5.23;;;3.50;99.90;;;;;;6722437;88;20194;-75
2021/01/03 17:17:56;;;;;;;10.10;5.00;;;3.50;99.90;;;;;;6728188;88;20247;-76
2021/01/03 17:28:19;;;;;;;9.35;4.87;;;3.40;99.90;;;;;;6723952;88;20217;-75
2021/01/03 17:38:41;;;;;;;10.30;5.37;;;3.40;99.90;;;;;;6721700;88;20211;-75
2021/01/03 17:48:46;;;;;;;8.30;4.75;;;3.50;99.90;;;;;;6723267;88;20330;-75
2021/01/03 17:58:47;;;;;;;8.38;4.28;;;3.50;99.90;;;;;;6720085;88;20356;-75
2021/01/03 18:08:47;;;;;;;9.88;4.90;;;3.40;99.90;;;;;;6724216;88;20337;-75
2021/01/03 18:18:48;;;;;;;9.77;5.00;;;3.40;99.90;;;;;;6724989;88;20189;-76
2021/01/03 18:28:48;;;;;;;9.10;4.35;;;3.30;99.90;;;;;;6730489;88;20214;-75
2021/01/03 18:38:50;;;;;;;10.00;4.15;;;3.20;99.90;;;;;;6740584;88;20573;-76
2021/01/03 18:48:53;;;;;;;9.63;4.07;;;3.20;99.90;;;;;;6740599;88;20289;-76
2021/01/03 18:58:53;;;;;;;7.72;4.03;;;3.00;99.90;;;;;;6732966;88;20235;-75
2021/01/03 19:08:54;;;;;;;8.90;4.68;;;3.00;99.90;;;;;;6734768;88;20185;-76
2021/01/03 19:18:54;;;;;;;10.68;4.80;;;2.90;99.90;;;;;;6739265;88;20210;-75
2021/01/03 19:28:55;;;;;;;8.95;4.93;;;3.00;99.90;;;;;;6757990;87;20234;-75
2021/01/03 19:38:56;;;;;;;10.90;5.03;;;2.90;99.90;;;;;;6756751;87;20497;-80
2021/01/03 19:48:59;;;;;;;10.35;5.43;;;2.80;99.90;;;;;;6746964;87;20225;-75
2021/01/03 19:59:00;;;;;;;9.05;4.72;;;2.90;99.90;;;;;;6761942;87;20237;-78
2021/01/03 20:09:00;;;;;;;8.55;4.60;;;2.90;99.90;;;;;;6754650;88;20177;-75
2021/01/03 20:19:04;;;;;;;8.82;4.47;;;2.90;99.90;;;;;;6751125;88;20201;-77
2021/01/03 20:29:05;;;;;;;9.88;4.78;;;2.90;99.90;;;;;;6744722;88;20207;-75
2021/01/03 20:39:05;;;;;;;9.10;4.80;;;2.90;99.90;;;;;;6749353;88;20221;-75
2021/01/03 20:49:06;;;;;;;8.70;5.17;;;2.80;99.90;;;;;;6754603;87;20702;-75
2021/01/03 20:59:06;;;;;;;11.45;5.87;;;2.80;99.90;;;;;;6758075;88;20498;-77
2021/01/03 21:09:07;;;;;;;12.05;6.00;;;2.70;99.90;;;;;;6728427;88;22577;-76
2021/01/03 21:19:09;;;;;;;11.12;5.70;;;2.70;99.90;;;;;;6732680;88;20225;-76
2021/01/03 21:29:41;;;;;;;10.05;5.28;;;2.80;99.90;;;;;;6745126;88;20287;-79
2021/01/03 21:49:59;;;;;;;8.60;4.68;;;2.80;99.90;;;;;;6756585;87;20215;-76
2021/01/03 22:00:27;;;;;;;8.38;4.90;;;2.60;99.90;;;;;;6754773;88;20171;-75
2021/01/03 22:10:36;;;;;;;8.15;4.40;;;2.80;99.90;;;;;;6736901;88;20196;-79
2021/01/03 22:20:58;;;;;;;7.12;3.70;;;2.70;99.90;;;;;;6735662;88;20208;-77
2021/01/03 22:31:33;;;;;;;10.00;3.80;;;2.60;99.90;;;;;;6735556;88;20292;-77
2021/01/03 22:41:40;;;;;;;6.20;3.60;;;2.60;99.90;;;;;;6744919;87;20611;-78
2021/01/03 22:52:02;;;;;;;6.80;3.75;;;2.60;99.90;;;;;;6757935;87;20268;-76
2021/01/03 23:02:24;;;;;;;6.65;3.90;;;2.60;99.90;;;;;;6753918;87;20209;-77
2021/01/03 23:12:37;;;;;;;8.60;4.32;;;2.50;99.90;;;;;;6756492;87;20594;-77
2021/01/03 23:22:41;;;;;;;6.55;3.90;;;2.40;99.90;;;;;;6759706;87;21001;-77
2021/01/03 23:32:43;;;;;;;8.63;4.62;;;2.50;99.90;;;;;;6754098;87;20309;-76
2021/01/03 23:42:54;;;;;;;8.80;4.55;;;2.30;99.90;;;;;;6761953;87;20303;-76
2021/01/03 23:53:36;;;;;;;8.75;4.07;;;2.30;99.90;;;;;;6759327;87;20917;-76
